createdAt,value
2023-11-13T00:00:00.024Z,8.15
2023-11-13T00:01:05.177Z,8.15
2023-11-13T00:02:15.144Z,8.14
2023-11-13T00:03:21.762Z,8.14
2023-11-13T00:04:30.469Z,8.14
2023-11-13T00:05:35.164Z,8.14
2023-11-13T00:06:46.810Z,8.14
2023-11-13T00:07:51.234Z,8.12
2023-11-13T00:08:57.720Z,8.13
2023-11-13T00:10:02.019Z,8.13
2023-11-13T00:11:11.637Z,8.15
2023-11-13T00:12:15.703Z,8.14
2023-11-13T00:13:24.441Z,8.14
2023-11-13T00:14:31.419Z,8.15
2023-11-13T00:15:37.941Z,8.16
2023-11-13T00:16:42.004Z,8.17
2023-11-13T00:17:48.888Z,8.17
2023-11-13T00:18:55.229Z,8.17
2023-11-13T00:20:01.874Z,8.18
2023-11-13T00:21:06.030Z,8.17
2023-11-13T00:22:13.649Z,8.16
2023-11-13T00:23:18.201Z,8.19
2023-11-13T00:24:27.726Z,8.20
2023-11-13T00:25:31.951Z,8.19
2023-11-13T00:26:38.654Z,8.19
2023-11-13T00:27:45.508Z,8.18
2023-11-13T00:28:54.561Z,8.21
2023-11-13T00:30:00.935Z,8.24
2023-11-13T00:31:09.920Z,8.24
2023-11-13T00:32:13.848Z,8.25
2023-11-13T00:33:20.448Z,8.25
2023-11-13T00:34:29.928Z,8.25
2023-11-13T00:35:44.943Z,8.25
2023-11-13T00:36:52.232Z,8.25
2023-11-13T00:38:01.435Z,8.26
2023-11-13T00:39:05.961Z,8.25
2023-11-13T00:40:14.849Z,8.20
2023-11-13T00:41:22.124Z,8.20
2023-11-13T00:42:27.267Z,8.20
2023-11-13T00:43:36.785Z,8.20
2023-11-13T00:44:42.990Z,8.20
2023-11-13T00:45:50.350Z,8.20
2023-11-13T00:46:54.572Z,8.20
2023-11-13T00:48:03.211Z,8.21
2023-11-13T00:49:11.169Z,8.20
2023-11-13T00:50:19.765Z,8.19
2023-11-13T00:51:25.929Z,8.19
2023-11-13T00:52:29.811Z,8.17
2023-11-13T00:53:40.439Z,8.16
2023-11-13T00:54:44.488Z,8.16
2023-11-13T00:55:53.055Z,8.15
2023-11-13T00:57:00.775Z,8.16
2023-11-13T00:58:07.730Z,8.15
2023-11-13T00:59:11.690Z,8.13
2023-11-13T01:00:19.938Z,8.14
2023-11-13T01:01:25.012Z,8.15
2023-11-13T01:02:33.730Z,8.14
2023-11-13T01:03:40.935Z,8.13
2023-11-13T01:04:49.887Z,8.13
2023-11-13T01:06:00.633Z,8.14
2023-11-13T01:07:08.092Z,8.14
2023-11-13T01:08:14.523Z,8.17
2023-11-13T01:09:21.075Z,8.17
2023-11-13T01:10:28.287Z,8.17
2023-11-13T01:11:37.257Z,8.17
2023-11-13T01:12:44.229Z,8.18
2023-11-13T01:13:53.895Z,8.19
2023-11-13T01:15:00.645Z,8.17
2023-11-13T01:16:06.197Z,8.19
2023-11-13T01:17:15.042Z,8.19
2023-11-13T01:18:24.744Z,8.18
2023-11-13T01:19:34.013Z,8.16
2023-11-13T01:20:37.945Z,8.15
2023-11-13T01:21:47.175Z,8.13
2023-11-13T01:22:53.389Z,8.14
2023-11-13T01:23:59.989Z,8.14
2023-11-13T01:25:07.533Z,8.14
2023-11-13T01:26:16.553Z,8.14
2023-11-13T01:27:20.554Z,8.14
2023-11-13T01:28:29.534Z,8.14
2023-11-13T01:29:34.074Z,8.13
2023-11-13T01:30:40.727Z,8.12
2023-11-13T01:31:46.125Z,8.11
2023-11-13T01:32:52.623Z,8.12
2023-11-13T01:33:56.735Z,8.11
2023-11-13T01:35:04.077Z,8.10
2023-11-13T01:36:08.981Z,8.10
2023-11-13T01:37:20.557Z,8.11
2023-11-13T01:38:24.457Z,8.10
2023-11-13T01:39:31.648Z,8.10
2023-11-13T01:40:37.915Z,8.10
2023-11-13T01:41:48.457Z,8.06
2023-11-13T01:42:54.679Z,8.05
2023-11-13T01:44:00.805Z,7.98
2023-11-13T01:45:06.356Z,7.98
2023-11-13T01:46:16.528Z,7.98
2023-11-13T01:47:20.564Z,7.97
2023-11-13T01:48:25.252Z,7.97
2023-11-13T01:49:31.639Z,7.97
2023-11-13T01:50:39.282Z,7.98
2023-11-13T01:51:48.351Z,8.00
2023-11-13T01:52:55.232Z,8.00
2023-11-13T01:54:08.509Z,8.03
2023-11-13T01:55:14.233Z,8.04
2023-11-13T01:56:26.395Z,8.03
2023-11-13T01:57:34.600Z,8.01
2023-11-13T01:58:41.502Z,7.99
2023-11-13T01:59:49.332Z,7.99
2023-11-13T02:00:59.809Z,8.01
2023-11-13T02:02:05.431Z,8.02
2023-11-13T02:03:16.913Z,8.02
2023-11-13T02:04:23.149Z,8.01
2023-11-13T02:05:33.011Z,8.02
2023-11-13T02:06:39.374Z,8.03
2023-11-13T02:07:47.121Z,8.04
2023-11-13T02:08:53.581Z,8.04
2023-11-13T02:10:00.175Z,8.04
2023-11-13T02:11:07.862Z,8.02
2023-11-13T02:12:15.050Z,8.01
2023-11-13T02:13:19.657Z,7.99
2023-11-13T02:14:30.085Z,8.00
2023-11-13T02:15:38.598Z,7.98
2023-11-13T02:16:45.655Z,7.99
2023-11-13T02:18:03.226Z,8.00
2023-11-13T02:19:10.600Z,8.00
2023-11-13T02:20:14.551Z,8.03
2023-11-13T02:21:21.071Z,8.03
2023-11-13T02:22:27.489Z,8.02
2023-11-13T02:23:36.692Z,8.04
2023-11-13T02:24:40.684Z,8.02
2023-11-13T02:25:56.740Z,8.03
2023-11-13T02:27:01.504Z,8.02
2023-11-13T02:28:11.026Z,8.02
2023-11-13T02:29:14.963Z,8.00
2023-11-13T02:30:24.756Z,7.99
2023-11-13T02:31:31.518Z,8.01
2023-11-13T02:32:38.012Z,8.01
2023-11-13T02:33:42.175Z,8.02
2023-11-13T02:34:50.887Z,8.05
2023-11-13T02:35:54.782Z,8.06
2023-11-13T02:37:04.585Z,8.06
2023-11-13T02:38:10.770Z,8.08
2023-11-13T02:39:20.970Z,8.09
2023-11-13T02:40:24.650Z,8.11
2023-11-13T02:41:33.591Z,8.11
2023-11-13T02:42:37.492Z,8.10
2023-11-13T02:43:44.051Z,8.09
2023-11-13T02:44:49.042Z,8.01
2023-11-13T02:45:58.024Z,8.03
2023-11-13T02:47:01.956Z,8.03
2023-11-13T02:48:09.387Z,8.03
2023-11-13T02:49:14.483Z,8.03
2023-11-13T02:50:22.267Z,8.02
2023-11-13T02:51:29.681Z,8.01
2023-11-13T02:52:35.940Z,7.98
2023-11-13T02:53:39.795Z,7.98
2023-11-13T02:54:53.369Z,7.97
2023-11-13T02:56:00.051Z,7.97
2023-11-13T02:57:06.590Z,7.96
2023-11-13T02:58:10.489Z,7.96
2023-11-13T02:59:17.011Z,7.94
2023-11-13T03:00:23.461Z,7.94
2023-11-13T03:01:33.245Z,7.94
2023-11-13T03:02:37.630Z,7.94
2023-11-13T03:03:46.139Z,7.95
2023-11-13T03:04:50.178Z,7.96
2023-11-13T03:05:56.737Z,7.95
2023-11-13T03:07:00.933Z,7.95
2023-11-13T03:08:07.929Z,7.95
2023-11-13T03:09:12.577Z,7.94
2023-11-13T03:10:21.602Z,7.95
2023-11-13T03:11:25.687Z,7.93
2023-11-13T03:12:34.543Z,7.94
2023-11-13T03:13:38.477Z,7.94
2023-11-13T03:14:45.023Z,7.94
2023-11-13T03:15:51.748Z,7.94
2023-11-13T03:16:59.453Z,7.94
2023-11-13T03:18:03.546Z,7.94
2023-11-13T03:19:13.061Z,7.95
2023-11-13T03:20:17.444Z,7.95
2023-11-13T03:21:21.303Z,7.95
2023-11-13T03:22:30.388Z,7.93
2023-11-13T03:23:37.663Z,7.93
2023-11-13T03:24:47.992Z,7.92
2023-11-13T03:26:00.764Z,7.93
2023-11-13T03:27:08.058Z,7.95
2023-11-13T03:28:12.054Z,7.97
2023-11-13T03:29:18.609Z,7.98
2023-11-13T03:30:24.953Z,7.99
2023-11-13T03:31:31.544Z,8.00
2023-11-13T03:32:35.514Z,8.01
2023-11-13T03:33:42.012Z,8.02
2023-11-13T03:34:46.007Z,8.01
2023-11-13T03:35:52.562Z,7.99
2023-11-13T03:36:58.976Z,7.98
2023-11-13T03:38:07.648Z,7.96
2023-11-13T03:39:15.080Z,7.95
2023-11-13T03:40:28.876Z,7.93
2023-11-13T03:41:36.496Z,7.91
2023-11-13T03:42:45.204Z,7.88
2023-11-13T03:43:49.091Z,7.87
2023-11-13T03:44:55.528Z,7.88
2023-11-13T03:45:59.421Z,7.86
2023-11-13T03:47:06.187Z,7.83
2023-11-13T03:48:10.404Z,7.82
2023-11-13T03:49:16.905Z,7.79
2023-11-13T03:50:23.147Z,7.80
2023-11-13T03:51:30.494Z,7.80
2023-11-13T03:52:34.466Z,7.79
2023-11-13T03:53:41.379Z,7.79
2023-11-13T03:54:48.290Z,7.79
2023-11-13T03:55:54.939Z,7.79
2023-11-13T03:57:01.399Z,7.79
2023-11-13T03:58:10.958Z,7.78
2023-11-13T03:59:17.437Z,7.77
2023-11-13T04:00:25.479Z,7.76
2023-11-13T04:01:29.428Z,7.75
2023-11-13T04:02:38.421Z,7.77
2023-11-13T04:03:43.220Z,7.77
2023-11-13T04:04:52.033Z,7.78
2023-11-13T04:05:56.236Z,7.79
2023-11-13T04:07:03.022Z,7.79
2023-11-13T04:08:09.256Z,7.77
2023-11-13T04:09:18.801Z,7.78
2023-11-13T04:10:24.355Z,7.76
2023-11-13T04:11:31.005Z,7.77
2023-11-13T04:12:37.541Z,7.79
2023-11-13T04:13:48.423Z,7.79
2023-11-13T04:14:53.195Z,7.78
2023-11-13T04:16:02.025Z,7.77
2023-11-13T04:17:06.415Z,7.79
2023-11-13T04:18:12.930Z,7.77
2023-11-13T04:19:21.799Z,7.78
2023-11-13T04:20:29.927Z,7.77
2023-11-13T04:21:33.809Z,7.78
2023-11-13T04:22:41.002Z,7.77
2023-11-13T04:23:45.790Z,7.78
2023-11-13T04:24:56.222Z,7.76
2023-11-13T04:26:02.394Z,7.78
2023-11-13T04:27:09.919Z,7.77
2023-11-13T04:28:16.685Z,7.77
2023-11-13T04:29:23.254Z,7.76
2023-11-13T04:30:26.510Z,7.76
2023-11-13T04:31:35.483Z,7.76
2023-11-13T04:32:39.528Z,7.76
2023-11-13T04:33:49.416Z,7.74
2023-11-13T04:34:55.601Z,7.73
2023-11-13T04:36:05.232Z,7.74
2023-11-13T04:37:14.219Z,7.75
2023-11-13T04:38:20.952Z,7.75
2023-11-13T04:39:27.279Z,7.73
2023-11-13T04:40:33.410Z,7.73
2023-11-13T04:41:41.894Z,7.73
2023-11-13T04:42:47.168Z,7.71
2023-11-13T04:43:56.242Z,7.71
2023-11-13T04:45:02.522Z,7.70
2023-11-13T04:46:09.238Z,7.70
2023-11-13T04:47:13.121Z,7.68
2023-11-13T04:48:19.498Z,7.67
2023-11-13T04:49:26.076Z,7.64
2023-11-13T04:50:30.018Z,7.64
2023-11-13T04:51:36.599Z,7.66
2023-11-13T04:52:40.456Z,7.66
2023-11-13T04:53:46.990Z,7.68
2023-11-13T04:54:53.822Z,7.69
2023-11-13T04:56:00.311Z,7.71
2023-11-13T04:57:07.154Z,7.69
2023-11-13T04:58:15.852Z,7.69
2023-11-13T04:59:22.980Z,7.68
2023-11-13T05:00:29.778Z,7.67
2023-11-13T05:01:38.236Z,7.64
2023-11-13T05:02:44.706Z,7.65
2023-11-13T05:03:54.308Z,7.64
2023-11-13T05:04:58.271Z,7.62
2023-11-13T05:06:08.504Z,7.63
2023-11-13T05:07:14.528Z,7.63
2023-11-13T05:08:21.154Z,7.62
2023-11-13T05:09:25.256Z,7.63
2023-11-13T05:10:34.105Z,7.60
2023-11-13T05:11:38.601Z,7.61
2023-11-13T05:12:45.073Z,7.61
2023-11-13T05:13:52.843Z,7.62
2023-11-13T05:15:01.943Z,7.61
2023-11-13T05:16:06.859Z,7.62
2023-11-13T05:17:13.522Z,7.59
2023-11-13T05:18:20.588Z,7.59
2023-11-13T05:19:27.490Z,7.59
2023-11-13T05:20:33.833Z,7.58
2023-11-13T05:21:40.341Z,7.58
2023-11-13T05:22:46.539Z,7.57
2023-11-13T05:23:53.318Z,7.57
2023-11-13T05:24:57.262Z,7.58
2023-11-13T05:26:03.049Z,7.59
2023-11-13T05:27:09.625Z,7.59
2023-11-13T05:28:13.277Z,7.59
2023-11-13T05:29:19.932Z,7.58
2023-11-13T05:30:25.882Z,7.58
2023-11-13T05:31:34.679Z,7.58
2023-11-13T05:32:38.628Z,7.56
2023-11-13T05:33:45.196Z,7.56
2023-11-13T05:34:50.464Z,7.55
2023-11-13T05:36:00.528Z,7.55
2023-11-13T05:37:06.889Z,7.54
2023-11-13T05:38:15.767Z,7.54
2023-11-13T05:39:23.121Z,7.54
2023-11-13T05:40:30.014Z,7.53
2023-11-13T05:41:38.566Z,7.51
2023-11-13T05:42:45.878Z,7.50
2023-11-13T05:43:50.445Z,7.50
2023-11-13T05:44:59.414Z,7.49
2023-11-13T05:46:09.087Z,7.49
2023-11-13T05:47:15.805Z,7.49
2023-11-13T05:48:20.421Z,7.48
2023-11-13T05:49:27.049Z,7.48
2023-11-13T05:50:33.237Z,7.45
2023-11-13T05:51:39.652Z,7.45
2023-11-13T05:52:48.618Z,7.43
2023-11-13T05:53:56.940Z,7.43
2023-11-13T05:55:02.128Z,7.43
2023-11-13T05:56:10.861Z,7.43
2023-11-13T05:57:14.763Z,7.43
2023-11-13T05:58:21.326Z,7.44
2023-11-13T05:59:25.254Z,7.42
2023-11-13T06:00:34.333Z,7.40
2023-11-13T06:01:43.650Z,7.42
2023-11-13T06:02:50.516Z,7.42
2023-11-13T06:03:56.673Z,7.42
2023-11-13T06:05:03.343Z,7.43
2023-11-13T06:06:16.721Z,7.43
2023-11-13T06:07:23.256Z,7.44
2023-11-13T06:08:29.632Z,7.44
2023-11-13T06:09:36.243Z,7.44
2023-11-13T06:10:42.394Z,7.46
2023-11-13T06:11:49.069Z,7.47
2023-11-13T06:12:56.067Z,7.48
2023-11-13T06:14:03.186Z,7.48
2023-11-13T06:15:11.781Z,7.49
2023-11-13T06:16:18.573Z,7.49
2023-11-13T06:17:26.741Z,7.48
2023-11-13T06:18:33.331Z,7.49
2023-11-13T06:19:37.220Z,7.49
2023-11-13T06:20:43.750Z,7.48
2023-11-13T06:21:47.743Z,7.48
2023-11-13T06:22:55.580Z,7.46
2023-11-13T06:23:59.562Z,7.46
2023-11-13T06:25:07.186Z,7.46
2023-11-13T06:26:13.915Z,7.44
2023-11-13T06:27:20.609Z,7.44
2023-11-13T06:28:24.601Z,7.46
2023-11-13T06:29:33.798Z,7.46
2023-11-13T06:30:37.655Z,7.48
2023-11-13T06:31:48.162Z,7.46
2023-11-13T06:32:54.734Z,7.46
2023-11-13T06:34:04.232Z,7.46
2023-11-13T06:35:09.468Z,7.45
2023-11-13T06:36:16.465Z,7.45
2023-11-13T06:37:20.838Z,7.43
2023-11-13T06:38:27.310Z,7.43
2023-11-13T06:39:33.740Z,7.41
2023-11-13T06:40:39.908Z,7.40
2023-11-13T06:41:45.005Z,7.40
2023-11-13T06:42:54.153Z,7.39
2023-11-13T06:43:59.308Z,7.39
2023-11-13T06:45:05.027Z,7.38
2023-11-13T06:46:14.252Z,7.39
2023-11-13T06:47:22.081Z,7.40
2023-11-13T06:48:31.044Z,7.40
2023-11-13T06:49:41.045Z,7.42
2023-11-13T06:50:48.082Z,7.42
2023-11-13T06:51:54.711Z,7.41
2023-11-13T06:53:01.023Z,7.41
2023-11-13T06:54:10.144Z,7.40
2023-11-13T06:55:28.398Z,7.40
2023-11-13T06:56:36.065Z,7.40
2023-11-13T06:57:43.027Z,7.41
2023-11-13T06:58:52.671Z,7.42
2023-11-13T06:59:56.566Z,7.42
2023-11-13T07:01:05.710Z,7.42
2023-11-13T07:02:09.713Z,7.42
2023-11-13T07:03:16.314Z,7.43
2023-11-13T07:04:25.780Z,7.43
2023-11-13T07:05:33.584Z,7.41
2023-11-13T07:06:40.397Z,7.41
2023-11-13T07:07:46.893Z,7.40
2023-11-13T07:08:55.636Z,7.41
2023-11-13T07:10:02.573Z,7.44
2023-11-13T07:11:10.318Z,7.43
2023-11-13T07:12:18.062Z,7.41
2023-11-13T07:13:26.768Z,7.43
2023-11-13T07:14:30.693Z,7.42
2023-11-13T07:15:37.250Z,7.41
2023-11-13T07:16:42.256Z,7.42
2023-11-13T07:17:49.046Z,7.44
2023-11-13T07:18:52.971Z,7.41
2023-11-13T07:19:59.540Z,7.38
2023-11-13T07:21:06.422Z,7.39
2023-11-13T07:22:12.159Z,7.41
2023-11-13T07:23:21.075Z,7.45
2023-11-13T07:24:27.394Z,7.42
2023-11-13T07:25:41.983Z,7.45
2023-11-13T07:26:48.978Z,7.46
2023-11-13T07:27:54.636Z,7.48
2023-11-13T07:28:59.515Z,7.45
2023-11-13T07:30:08.900Z,7.47
2023-11-13T07:31:12.817Z,7.44
2023-11-13T07:32:22.080Z,7.44
2023-11-13T07:33:26.097Z,7.41
2023-11-13T07:34:35.949Z,7.35
2023-11-13T07:35:42.548Z,7.37
2023-11-13T07:36:53.566Z,7.38
2023-11-13T07:38:00.127Z,7.35
2023-11-13T07:39:07.655Z,7.33
2023-11-13T07:40:14.909Z,7.36
2023-11-13T07:41:21.622Z,7.36
2023-11-13T07:42:33.747Z,7.38
2023-11-13T07:43:43.329Z,7.40
2023-11-13T07:44:50.716Z,7.38
2023-11-13T07:45:57.358Z,7.41
2023-11-13T07:47:08.895Z,7.42
2023-11-13T07:48:18.202Z,7.41
2023-11-13T07:49:22.422Z,7.44
2023-11-13T07:50:29.090Z,7.39
2023-11-13T07:51:35.713Z,7.33
2023-11-13T07:52:48.267Z,7.30
2023-11-13T07:53:52.157Z,7.30
2023-11-13T07:55:03.250Z,7.31
2023-11-13T07:56:10.931Z,7.31
2023-11-13T07:57:17.021Z,7.34
2023-11-13T07:58:24.211Z,7.33
2023-11-13T07:59:33.163Z,7.37
2023-11-13T08:00:40.052Z,7.37
2023-11-13T08:01:48.892Z,7.38
2023-11-13T08:02:53.525Z,7.40
2023-11-13T08:04:02.356Z,7.41
2023-11-13T08:05:12.219Z,7.44
2023-11-13T08:06:19.415Z,7.47
2023-11-13T08:07:33.292Z,7.47
2023-11-13T08:08:39.759Z,7.48
2023-11-13T08:09:45.971Z,7.48
2023-11-13T08:10:53.258Z,7.47
2023-11-13T08:11:59.423Z,7.43
2023-11-13T08:13:10.557Z,7.40
2023-11-13T08:14:15.552Z,7.40
2023-11-13T08:15:23.292Z,7.37
2023-11-13T08:16:28.533Z,7.36
2023-11-13T08:17:38.407Z,7.35
2023-11-13T08:18:43.346Z,7.31
2023-11-13T08:19:50.028Z,7.31
2023-11-13T08:20:54.766Z,7.28
2023-11-13T08:22:02.358Z,7.31
2023-11-13T08:23:11.376Z,7.32
2023-11-13T08:24:21.044Z,7.31
2023-11-13T08:25:25.858Z,7.30
2023-11-13T08:26:34.129Z,7.28
2023-11-13T08:27:41.422Z,7.31
2023-11-13T08:28:50.550Z,7.29
2023-11-13T08:29:54.947Z,7.30
2023-11-13T08:31:05.812Z,7.32
2023-11-13T08:32:11.717Z,7.29
2023-11-13T08:33:20.476Z,7.28
2023-11-13T08:34:24.498Z,7.30
2023-11-13T08:35:33.945Z,7.31
2023-11-13T08:36:40.587Z,7.32
2023-11-13T08:37:49.016Z,7.30
2023-11-13T08:39:01.476Z,7.29
2023-11-13T08:40:12.311Z,7.27
2023-11-13T08:41:19.764Z,7.30
2023-11-13T08:42:23.772Z,7.30
2023-11-13T08:43:30.959Z,7.28
2023-11-13T08:44:36.275Z,7.27
2023-11-13T08:45:53.909Z,7.27
2023-11-13T08:47:11.782Z,7.30
2023-11-13T08:48:15.904Z,7.32
2023-11-13T08:49:24.425Z,7.31
2023-11-13T08:50:28.974Z,7.30
2023-11-13T08:51:35.471Z,7.30
2023-11-13T08:52:42.208Z,7.33
2023-11-13T08:53:49.620Z,7.36
2023-11-13T08:54:58.350Z,7.37
2023-11-13T08:56:16.473Z,7.39
2023-11-13T08:57:20.968Z,7.39
2023-11-13T08:58:27.708Z,7.42
2023-11-13T08:59:31.775Z,7.42
2023-11-13T09:00:45.599Z,7.45
2023-11-13T09:01:49.925Z,7.49
2023-11-13T09:03:00.923Z,7.53
2023-11-13T09:04:08.222Z,7.53
2023-11-13T09:05:14.876Z,7.58
2023-11-13T09:06:20.973Z,7.60
2023-11-13T09:07:30.159Z,7.63
2023-11-13T09:08:37.151Z,7.64
2023-11-13T09:09:43.855Z,7.70
2023-11-13T09:10:50.405Z,7.75
2023-11-13T09:11:56.911Z,7.79
2023-11-13T09:13:03.873Z,7.82
2023-11-13T09:14:11.139Z,7.88
2023-11-13T09:15:16.327Z,7.91
2023-11-13T09:16:22.884Z,7.94
2023-11-13T09:17:27.277Z,7.98
2023-11-13T09:18:33.967Z,8.01
2023-11-13T09:19:42.448Z,8.06
2023-11-13T09:20:49.688Z,8.10
2023-11-13T09:22:01.155Z,8.12
2023-11-13T09:23:10.478Z,8.13
2023-11-13T09:24:15.165Z,8.22
2023-11-13T09:25:24.911Z,8.26
2023-11-13T09:26:33.944Z,8.29
2023-11-13T09:27:40.544Z,8.36
2023-11-13T09:28:44.555Z,8.40
2023-11-13T09:29:51.045Z,8.45
2023-11-13T09:30:57.288Z,8.52
2023-11-13T09:32:08.796Z,8.58
2023-11-13T09:33:12.901Z,8.58
2023-11-13T09:34:20.276Z,8.62
2023-11-13T09:35:26.186Z,8.70
2023-11-13T09:36:36.057Z,8.77
2023-11-13T09:37:42.426Z,8.85
2023-11-13T09:38:55.166Z,8.91
2023-11-13T09:40:09.510Z,8.97
2023-11-13T09:41:26.895Z,9.04
2023-11-13T09:42:34.917Z,9.13
2023-11-13T09:43:42.165Z,9.23
2023-11-13T09:44:56.458Z,9.30
2023-11-13T09:46:08.446Z,9.32
2023-11-13T09:47:18.100Z,9.41
2023-11-13T09:48:30.545Z,9.46
2023-11-13T09:49:43.219Z,9.50
2023-11-13T09:50:50.726Z,9.52
2023-11-13T09:51:55.896Z,9.57
2023-11-13T09:53:07.958Z,9.61
2023-11-13T09:54:14.946Z,9.71
2023-11-13T09:55:25.412Z,9.72
2023-11-13T09:56:32.066Z,9.73
2023-11-13T09:57:46.288Z,9.78
2023-11-13T09:58:54.842Z,9.85
2023-11-13T10:00:03.770Z,9.90
2023-11-13T10:01:21.720Z,9.95
2023-11-13T10:02:31.025Z,9.98
2023-11-13T10:03:38.989Z,10.07
2023-11-13T10:04:45.579Z,10.01
2023-11-13T10:05:50.794Z,10.04
2023-11-13T10:07:01.286Z,9.99
2023-11-13T10:08:05.982Z,10.00
2023-11-13T10:09:15.562Z,10.04
2023-11-13T10:10:23.988Z,10.07
2023-11-13T10:11:31.008Z,10.07
2023-11-13T10:12:37.611Z,10.05
2023-11-13T10:13:49.317Z,10.13
2023-11-13T10:15:03.958Z,10.13
2023-11-13T10:16:24.183Z,10.21
2023-11-13T10:17:42.626Z,10.31
2023-11-13T10:18:49.125Z,10.31
2023-11-13T10:20:00.714Z,10.31
2023-11-13T10:21:09.441Z,10.41
2023-11-13T10:22:17.756Z,10.47
2023-11-13T10:23:37.711Z,10.51
2023-11-13T10:24:46.518Z,10.51
2023-11-13T10:25:57.905Z,10.58
2023-11-13T10:27:03.706Z,10.57
2023-11-13T10:28:09.936Z,10.59
2023-11-13T10:29:28.293Z,10.63
2023-11-13T10:30:36.874Z,10.71
2023-11-13T10:31:46.407Z,10.82
2023-11-13T10:32:53.144Z,10.92
2023-11-13T10:34:00.784Z,10.96
2023-11-13T10:35:10.857Z,10.98
2023-11-13T10:36:19.528Z,11.04
2023-11-13T10:37:28.838Z,11.06
2023-11-13T10:38:45.501Z,11.10
2023-11-13T10:39:53.098Z,11.11
2023-11-13T10:41:01.559Z,11.12
2023-11-13T10:42:25.721Z,10.99
2023-11-13T10:43:31.799Z,10.98
2023-11-13T10:44:44.319Z,10.91
2023-11-13T10:45:48.427Z,10.92
2023-11-13T10:46:58.002Z,10.88
2023-11-13T10:48:01.199Z,10.90
2023-11-13T10:49:13.498Z,10.99
2023-11-13T10:50:22.809Z,11.06
2023-11-13T10:51:29.618Z,11.09
2023-11-13T10:52:33.689Z,11.09
2023-11-13T10:53:44.546Z,11.11
2023-11-13T10:54:49.778Z,11.10
2023-11-13T10:56:01.322Z,11.09
2023-11-13T10:57:09.950Z,11.06
2023-11-13T10:58:16.641Z,10.99
2023-11-13T10:59:20.617Z,10.87
2023-11-13T11:00:32.768Z,10.77
2023-11-13T11:01:43.134Z,10.75
2023-11-13T11:02:50.428Z,10.73
2023-11-13T11:03:59.421Z,10.79
2023-11-13T11:05:11.220Z,10.85
2023-11-13T11:06:21.719Z,10.88
2023-11-13T11:07:31.307Z,10.90
2023-11-13T11:08:38.821Z,10.91
2023-11-13T11:09:48.747Z,10.95
2023-11-13T11:10:56.145Z,10.99
2023-11-13T11:12:04.785Z,10.99
2023-11-13T11:13:16.810Z,11.02
2023-11-13T11:14:45.479Z,11.10
2023-11-13T11:16:17.661Z,11.10
2023-11-13T11:17:39.285Z,11.13
2023-11-13T11:18:52.056Z,11.08
2023-11-13T11:20:07.202Z,11.05
2023-11-13T11:21:37.713Z,11.15
2023-11-13T11:22:59.225Z,11.08
2023-11-13T11:24:21.434Z,11.00
2023-11-13T11:25:46.183Z,11.14
2023-11-13T11:27:00.101Z,11.27
2023-11-13T11:28:07.409Z,11.34
2023-11-13T11:29:35.375Z,11.41
2023-11-13T11:30:43.003Z,11.49
2023-11-13T11:31:52.746Z,11.45
2023-11-13T11:32:59.524Z,11.50
2023-11-13T11:34:07.874Z,11.59
2023-11-13T11:35:21.051Z,11.76
2023-11-13T11:36:32.811Z,11.82
2023-11-13T11:37:36.904Z,11.78
2023-11-13T11:38:45.626Z,11.67
2023-11-13T11:39:54.574Z,11.82
2023-11-13T11:41:03.492Z,11.94
2023-11-13T11:42:18.325Z,12.01
2023-11-13T11:43:34.810Z,12.03
2023-11-13T11:44:47.792Z,12.11
2023-11-13T11:45:56.453Z,12.23
2023-11-13T11:47:08.769Z,12.33
2023-11-13T11:48:19.537Z,12.31
2023-11-13T11:49:29.780Z,12.40
2023-11-13T11:50:37.429Z,12.33
2023-11-13T11:51:42.036Z,12.22
2023-11-13T11:52:53.808Z,12.16
2023-11-13T11:53:57.111Z,12.19
2023-11-13T11:55:14.145Z,12.11
2023-11-13T11:56:17.397Z,12.11
2023-11-13T11:57:26.373Z,12.05
2023-11-13T11:58:33.620Z,11.90
2023-11-13T11:59:41.088Z,12.08
2023-11-13T12:00:46.626Z,12.23
2023-11-13T12:01:54.623Z,12.22
2023-11-13T12:03:05.217Z,12.22
2023-11-13T12:04:12.732Z,12.26
2023-11-13T12:05:20.654Z,12.32
2023-11-13T12:06:25.478Z,12.38
2023-11-13T12:07:35.740Z,12.44
2023-11-13T12:08:43.087Z,12.38
2023-11-13T12:09:49.573Z,12.29
2023-11-13T12:10:56.757Z,12.26
2023-11-13T12:12:05.873Z,12.15
2023-11-13T12:13:12.879Z,12.17
2023-11-13T12:14:19.571Z,12.11
2023-11-13T12:15:28.123Z,12.08
2023-11-13T12:16:37.742Z,11.95
2023-11-13T12:17:45.365Z,11.79
2023-11-13T12:18:54.227Z,11.59
2023-11-13T12:20:09.851Z,11.51
2023-11-13T12:21:24.696Z,11.47
2023-11-13T12:22:34.233Z,11.49
2023-11-13T12:23:40.861Z,11.29
2023-11-13T12:24:44.977Z,11.27
2023-11-13T12:25:51.618Z,11.24
2023-11-13T12:26:58.017Z,11.30
2023-11-13T12:28:04.786Z,11.24
2023-11-13T12:29:20.436Z,11.30
2023-11-13T12:30:28.876Z,11.28
2023-11-13T12:31:32.816Z,11.23
2023-11-13T12:32:42.182Z,11.19
2023-11-13T12:33:53.985Z,11.15
2023-11-13T12:35:01.895Z,10.97
2023-11-13T12:36:06.867Z,10.87
2023-11-13T12:37:13.597Z,10.81
2023-11-13T12:38:24.060Z,10.73
2023-11-13T12:39:31.635Z,10.58
2023-11-13T12:40:35.774Z,10.47
2023-11-13T12:41:39.730Z,10.47
2023-11-13T12:42:49.681Z,10.47
2023-11-13T12:43:55.040Z,10.48
2023-11-13T12:45:09.607Z,10.40
2023-11-13T12:46:24.041Z,10.36
2023-11-13T12:47:30.833Z,10.40
2023-11-13T12:48:36.703Z,10.43
2023-11-13T12:49:45.851Z,10.41
2023-11-13T12:50:50.220Z,10.36
2023-11-13T12:51:57.732Z,10.31
2023-11-13T12:53:01.617Z,10.28
2023-11-13T12:54:15.788Z,10.32
2023-11-13T12:55:21.262Z,10.38
2023-11-13T12:56:25.881Z,10.37
2023-11-13T12:57:38.683Z,10.18
2023-11-13T12:58:43.039Z,10.12
2023-11-13T12:59:54.152Z,10.11
2023-11-13T13:00:58.147Z,10.04
2023-11-13T13:02:05.954Z,9.98
2023-11-13T13:03:12.779Z,9.93
2023-11-13T13:04:21.906Z,9.88
2023-11-13T13:05:31.561Z,9.82
2023-11-13T13:06:40.820Z,9.90
2023-11-13T13:07:45.395Z,9.88
2023-11-13T13:08:58.396Z,9.81
2023-11-13T13:10:03.583Z,9.87
2023-11-13T13:11:10.265Z,9.78
2023-11-13T13:12:14.213Z,9.72
2023-11-13T13:13:20.735Z,9.79
2023-11-13T13:14:28.182Z,9.82
2023-11-13T13:15:34.530Z,9.82
2023-11-13T13:16:38.668Z,9.76
2023-11-13T13:17:51.075Z,9.77
2023-11-13T13:18:55.300Z,9.71
2023-11-13T13:20:03.482Z,9.78
2023-11-13T13:21:14.921Z,9.82
2023-11-13T13:22:21.540Z,9.77
2023-11-13T13:23:25.544Z,9.76
2023-11-13T13:24:31.859Z,9.77
2023-11-13T13:25:37.637Z,9.75
2023-11-13T13:26:46.523Z,9.71
2023-11-13T13:27:50.386Z,9.71
2023-11-13T13:28:58.299Z,9.72
2023-11-13T13:30:03.025Z,9.74
2023-11-13T13:31:12.392Z,9.74
2023-11-13T13:32:18.982Z,9.74
2023-11-13T13:33:28.561Z,9.71
2023-11-13T13:34:32.581Z,9.65
2023-11-13T13:35:40.327Z,9.63
2023-11-13T13:36:47.248Z,9.61
2023-11-13T13:37:54.000Z,9.62
2023-11-13T13:38:58.068Z,9.64
2023-11-13T13:40:11.409Z,9.65
2023-11-13T13:41:17.729Z,9.63
2023-11-13T13:42:26.493Z,9.58
2023-11-13T13:43:33.267Z,9.47
2023-11-13T13:44:39.886Z,9.40
2023-11-13T13:45:45.278Z,9.35
2023-11-13T13:46:55.355Z,9.37
2023-11-13T13:48:03.101Z,9.37
2023-11-13T13:49:07.437Z,9.41
2023-11-13T13:50:20.644Z,9.41
2023-11-13T13:51:26.524Z,9.43
2023-11-13T13:52:38.668Z,9.37
2023-11-13T13:53:46.207Z,9.38
2023-11-13T13:54:52.415Z,9.30
2023-11-13T13:56:00.213Z,9.22
2023-11-13T13:57:08.848Z,9.19
2023-11-13T13:58:13.803Z,9.15
2023-11-13T13:59:23.548Z,9.19
2023-11-13T14:00:35.808Z,9.16
2023-11-13T14:01:44.315Z,9.19
2023-11-13T14:02:48.469Z,9.21
2023-11-13T14:03:57.716Z,9.26
2023-11-13T14:05:05.946Z,9.24
2023-11-13T14:06:16.552Z,9.13
2023-11-13T14:07:20.505Z,9.11
2023-11-13T14:08:29.805Z,9.09
2023-11-13T14:09:36.175Z,9.08
2023-11-13T14:10:52.277Z,9.15
2023-11-13T14:12:03.476Z,9.13
2023-11-13T14:13:16.092Z,9.15
2023-11-13T14:14:20.614Z,9.08
2023-11-13T14:15:30.477Z,9.02
2023-11-13T14:16:37.668Z,9.08
2023-11-13T14:17:45.300Z,9.09
2023-11-13T14:18:52.435Z,9.03
2023-11-13T14:19:59.936Z,8.98
2023-11-13T14:21:04.765Z,9.00
2023-11-13T14:22:12.633Z,9.03
2023-11-13T14:23:18.924Z,8.98
2023-11-13T14:24:30.335Z,9.00
2023-11-13T14:25:34.447Z,8.98
2023-11-13T14:26:41.008Z,8.93
2023-11-13T14:27:46.384Z,8.91
2023-11-13T14:28:56.782Z,8.93
2023-11-13T14:30:02.529Z,8.94
2023-11-13T14:31:11.622Z,9.01
2023-11-13T14:32:16.252Z,9.02
2023-11-13T14:33:24.586Z,9.07
2023-11-13T14:34:31.798Z,9.09
2023-11-13T14:35:38.970Z,9.03
2023-11-13T14:36:44.857Z,9.03
2023-11-13T14:37:51.870Z,9.01
2023-11-13T14:38:55.765Z,9.05
2023-11-13T14:40:09.087Z,9.05
2023-11-13T14:41:20.256Z,9.06
2023-11-13T14:42:31.330Z,9.06
2023-11-13T14:43:35.995Z,9.04
2023-11-13T14:44:42.575Z,9.02
2023-11-13T14:45:56.137Z,9.01
2023-11-13T14:47:02.943Z,9.03
2023-11-13T14:48:09.027Z,9.02
2023-11-13T14:49:16.318Z,9.03
2023-11-13T14:50:25.391Z,9.03
2023-11-13T14:51:35.743Z,9.01
2023-11-13T14:52:42.045Z,8.97
2023-11-13T14:53:48.596Z,8.99
2023-11-13T14:54:52.609Z,9.01
2023-11-13T14:56:01.921Z,8.90
2023-11-13T14:57:07.169Z,8.88